Durant, Iowa
Current Conditions -  °F | °C
As of 6:52 PM on Saturday 25 Oct 2014 (Local Time) from KDVN Reporting Station
Clear Clear  
Wind Chill: 56°   Ceiling: Unl
Heat Index: 56°   Visibility: 10mi
Dew Point: 33°   Wind: 7mph
Humidity: 42%   Direction: 290°WNW
Pressure: 30.02"   Gusts: NA
Location:  41.6°N, 90.91°W
Report Text: KDVN 252352Z AUTO 29006KT 10SM CLR 13/01 A3002 RMK AO2 SLP165 T01330006 10228 20128 53001 TSNO
Loading
Personal Weather Stations






























Interactive Weather Map
Tropical Storm Tracking
New forecast layout! Learn more

10-Day Weather Forecast

Advertisements
Track Severe Weather on mobile